Time;durP1;ratioP1;P1;durP2;ratioP2;P2;SDS_P1;SDS_P2;PMS_P1;PMS_P2;Temp;Humidity;BMP_temperature;BMP_pressure;BME280_temperature;BME280_humidity;BME280_pressure;Samples;Min_cycle;Max_cycle;Signal;HPM_P1;HPM_P2
2021/04/30 00:04:40;;;;;;;4.63;3.10;;;11.20;57.90;;;;;;10166381;27;20053;-55
2021/04/30 00:09:32;;;;;;;6.07;3.50;;;11.30;57.30;;;;;;10173352;27;20043;-53
2021/04/30 00:14:23;;;;;;;4.05;2.90;;;11.30;57.60;;;;;;10165554;27;20043;-53
2021/04/30 00:19:13;;;;;;;6.35;3.72;;;11.50;57.40;;;;;;10167520;27;20144;-53
2021/04/30 00:24:06;;;;;;;5.60;3.80;;;11.40;57.60;;;;;;10172258;27;20028;-51
2021/04/30 00:28:57;;;;;;;6.93;3.80;;;11.30;57.50;;;;;;10164349;27;20088;-53
2021/04/30 00:33:48;;;;;;;5.38;3.70;;;11.40;57.30;;;;;;10175610;27;20077;-54
2021/04/30 00:38:39;;;;;;;6.00;3.80;;;11.40;57.20;;;;;;10170472;27;20047;-52
2021/04/30 00:43:29;;;;;;;4.22;3.22;;;11.30;57.50;;;;;;10161438;27;20132;-53
2021/04/30 00:48:22;;;;;;;4.10;3.42;;;11.30;56.90;;;;;;10172575;27;20024;-50
2021/04/30 00:53:12;;;;;;;5.55;3.13;;;11.30;56.70;;;;;;10160693;28;21072;-52
2021/04/30 00:58:04;;;;;;;5.00;3.33;;;11.30;57.10;;;;;;10165463;28;20494;-51
2021/04/30 01:02:55;;;;;;;4.93;3.55;;;11.20;57.00;;;;;;10175119;28;20122;-55
2021/04/30 01:07:46;;;;;;;7.05;4.15;;;11.20;57.10;;;;;;10174492;28;21137;-52
2021/04/30 01:12:39;;;;;;;6.68;3.90;;;11.20;56.80;;;;;;10160504;28;20063;-51
2021/04/30 01:17:30;;;;;;;6.50;3.47;;;11.20;57.30;;;;;;10162467;28;20137;-51
2021/04/30 01:22:37;;;;;;;6.78;3.67;;;11.20;57.20;;;;;;10166664;28;20486;-54
2021/04/30 01:27:28;;;;;;;5.38;3.78;;;11.20;57.10;;;;;;10170876;27;20520;-49
2021/04/30 01:32:19;;;;;;;4.38;3.42;;;11.20;56.80;;;;;;10170869;27;20594;-54
2021/04/30 01:37:10;;;;;;;3.85;2.80;;;11.20;57.00;;;;;;10175513;27;20535;-53
2021/04/30 01:42:04;;;;;;;6.57;3.38;;;11.20;57.20;;;;;;10174792;27;20446;-53
2021/04/30 01:46:59;;;;;;;3.58;2.70;;;11.30;57.00;;;;;;10167994;27;20051;-53
2021/04/30 01:51:50;;;;;;;7.93;3.22;;;11.20;57.10;;;;;;10173425;27;20032;-56
2021/04/30 01:56:41;;;;;;;4.20;3.05;;;11.20;57.30;;;;;;10166483;28;20046;-53
2021/04/30 02:01:31;;;;;;;4.55;3.13;;;11.00;57.70;;;;;;10171477;27;20426;-53
2021/04/30 02:06:22;;;;;;;4.13;3.72;;;11.00;57.70;;;;;;10174461;27;20520;-54
2021/04/30 02:11:13;;;;;;;5.03;3.50;;;10.90;56.90;;;;;;10177057;27;20031;-52
2021/04/30 02:16:04;;;;;;;4.32;3.10;;;10.90;57.40;;;;;;10166485;28;20629;-57
2021/04/30 02:20:55;;;;;;;4.18;2.88;;;11.10;57.10;;;;;;10167933;27;20615;-53
2021/04/30 02:25:46;;;;;;;11.10;4.18;;;11.10;57.40;;;;;;10170014;27;20027;-50
2021/04/30 02:30:40;;;;;;;6.05;3.75;;;11.00;57.30;;;;;;10172100;27;20184;-54
2021/04/30 02:35:43;;;;;;;5.13;3.53;;;11.10;57.50;;;;;;10166200;27;20461;-52
2021/04/30 02:40:36;;;;;;;4.13;2.85;;;11.00;57.90;;;;;;10171666;27;20043;-54
2021/04/30 02:45:27;;;;;;;5.60;3.22;;;11.00;57.90;;;;;;10176029;27;20560;-55
2021/04/30 02:50:21;;;;;;;5.22;3.28;;;11.00;57.80;;;;;;10184479;27;20024;-56
2021/04/30 02:55:13;;;;;;;6.45;3.58;;;10.90;58.10;;;;;;10191745;27;20633;-51
2021/04/30 03:00:06;;;;;;;6.82;3.78;;;11.00;57.90;;;;;;10171097;27;20039;-57
2021/04/30 03:04:56;;;;;;;4.75;3.25;;;10.90;58.10;;;;;;10176366;27;20038;-53
2021/04/30 03:09:47;;;;;;;5.60;3.20;;;10.80;58.40;;;;;;10176377;27;20031;-51
2021/04/30 03:14:38;;;;;;;5.53;3.40;;;10.70;58.80;;;;;;10181875;27;20483;-53
2021/04/30 03:19:29;;;;;;;5.30;3.35;;;10.60;58.80;;;;;;10166901;27;20073;-54
2021/04/30 03:24:19;;;;;;;5.47;3.65;;;10.50;59.00;;;;;;10154944;28;20031;-58
2021/04/30 03:29:10;;;;;;;5.35;3.42;;;10.50;58.90;;;;;;10181382;27;20027;-54
2021/04/30 03:34:01;;;;;;;5.00;3.25;;;10.50;59.00;;;;;;10175833;27;20035;-53
2021/04/30 03:38:52;;;;;;;8.90;4.78;;;10.50;59.00;;;;;;10166067;27;20047;-51
2021/04/30 03:43:43;;;;;;;5.57;3.75;;;10.50;58.80;;;;;;10179024;27;20031;-55
2021/04/30 03:48:34;;;;;;;5.13;3.28;;;10.40;58.80;;;;;;10169942;27;20115;-58
2021/04/30 03:53:25;;;;;;;4.78;3.70;;;10.30;59.40;;;;;;10179148;27;20740;-51
2021/04/30 03:58:16;;;;;;;5.28;3.50;;;10.30;58.90;;;;;;10188095;27;20027;-53
2021/04/30 04:03:07;;;;;;;5.05;3.50;;;10.40;58.70;;;;;;10173756;27;20050;-53
2021/04/30 04:07:57;;;;;;;5.90;3.20;;;10.30;58.50;;;;;;10169859;27;20127;-54
2021/04/30 04:12:48;;;;;;;6.72;2.97;;;10.40;58.30;;;;;;10170885;27;20142;-57
2021/04/30 04:17:39;;;;;;;5.05;3.20;;;10.30;58.40;;;;;;10161370;27;20606;-53
2021/04/30 04:22:30;;;;;;;4.32;2.92;;;10.30;58.20;;;;;;10171101;27;20573;-53
2021/04/30 04:27:21;;;;;;;4.20;3.15;;;10.30;57.90;;;;;;10162478;27;20521;-54
2021/04/30 04:32:12;;;;;;;8.18;3.45;;;10.10;58.20;;;;;;10152042;27;20163;-56
2021/04/30 04:37:04;;;;;;;5.57;3.33;;;10.20;58.00;;;;;;10166488;27;20036;-55
2021/04/30 04:41:54;;;;;;;5.47;3.28;;;10.10;58.20;;;;;;10162233;27;20073;-52
2021/04/30 04:46:45;;;;;;;6.25;3.85;;;10.00;58.40;;;;;;10150123;28;20521;-56
2021/04/30 04:51:37;;;;;;;5.57;3.50;;;10.10;58.30;;;;;;10160731;28;20163;-53
2021/04/30 04:56:28;;;;;;;4.35;3.38;;;10.10;58.10;;;;;;10161098;28;20486;-57
2021/04/30 05:01:19;;;;;;;7.63;3.60;;;10.10;57.90;;;;;;10165598;28;20122;-60
2021/04/30 05:06:10;;;;;;;4.97;3.72;;;10.00;58.50;;;;;;10163226;28;20042;-54
2021/04/30 05:11:01;;;;;;;6.25;3.20;;;10.10;58.30;;;;;;10163156;28;20038;-55
2021/04/30 05:15:52;;;;;;;5.65;3.72;;;10.10;58.30;;;;;;10179237;28;20043;-55
2021/04/30 05:20:42;;;;;;;5.53;3.25;;;10.00;58.40;;;;;;10162088;28;20053;-52
2021/04/30 05:25:33;;;;;;;4.97;3.55;;;10.00;58.70;;;;;;10169266;28;20195;-54
2021/04/30 05:30:24;;;;;;;6.95;3.70;;;9.90;58.90;;;;;;10154932;28;20031;-52
2021/04/30 05:35:15;;;;;;;5.97;3.85;;;9.80;59.10;;;;;;10184039;28;20027;-54
2021/04/30 05:40:06;;;;;;;6.47;3.55;;;9.80;59.10;;;;;;10161586;28;20317;-53
2021/04/30 05:44:59;;;;;;;5.43;3.55;;;9.90;58.60;;;;;;10179655;28;20047;-55
2021/04/30 05:49:50;;;;;;;5.72;3.63;;;9.90;58.80;;;;;;10162510;28;20055;-51
2021/04/30 05:54:41;;;;;;;10.20;3.85;;;9.80;58.90;;;;;;10175837;28;20043;-54
2021/04/30 05:59:32;;;;;;;5.50;3.38;;;9.90;59.30;;;;;;10186543;28;20266;-58
2021/04/30 06:04:25;;;;;;;6.07;3.35;;;9.90;58.70;;;;;;10180120;28;20168;-50
2021/04/30 06:09:17;;;;;;;5.13;4.15;;;9.80;58.80;;;;;;10184400;27;20135;-54
2021/04/30 06:14:09;;;;;;;6.07;3.75;;;9.90;58.70;;;;;;10187430;27;20088;-55
2021/04/30 06:19:00;;;;;;;7.00;3.85;;;9.80;59.00;;;;;;10187616;27;20035;-52
2021/04/30 06:23:51;;;;;;;6.38;4.10;;;9.80;58.90;;;;;;10205866;28;20039;-56
2021/04/30 06:28:42;;;;;;;7.30;4.07;;;9.60;59.30;;;;;;10222377;27;20088;-58
2021/04/30 06:33:32;;;;;;;6.03;4.10;;;9.60;59.80;;;;;;10218607;27;20027;-57
2021/04/30 06:38:23;;;;;;;5.38;3.88;;;9.60;59.90;;;;;;10237163;27;20042;-58
2021/04/30 06:43:14;;;;;;;6.30;3.83;;;9.60;59.90;;;;;;10237987;27;20037;-55
2021/04/30 06:48:05;;;;;;;9.75;4.85;;;9.60;59.80;;;;;;10235268;27;20050;-56
2021/04/30 06:52:56;;;;;;;7.82;4.20;;;9.40;60.50;;;;;;10222026;27;20514;-57
2021/04/30 06:57:47;;;;;;;7.25;4.75;;;9.50;60.40;;;;;;10222519;27;20032;-61
2021/04/30 07:02:38;;;;;;;6.38;3.75;;;9.40;60.30;;;;;;10200933;27;20027;-56
2021/04/30 07:07:29;;;;;;;6.15;3.95;;;9.40;60.30;;;;;;10225947;27;20263;-56
2021/04/30 07:12:20;;;;;;;5.65;3.65;;;9.30;60.50;;;;;;10215163;27;20073;-58
2021/04/30 07:17:10;;;;;;;6.63;4.18;;;9.40;60.50;;;;;;10219964;27;20054;-57
2021/04/30 07:22:01;;;;;;;6.72;3.83;;;9.30;60.70;;;;;;10221912;27;20030;-56
2021/04/30 07:26:52;;;;;;;9.32;4.57;;;9.40;60.60;;;;;;10224978;27;20154;-56
2021/04/30 07:31:43;;;;;;;8.68;4.50;;;9.40;60.70;;;;;;10238253;27;20226;-57
2021/04/30 07:36:34;;;;;;;8.98;4.28;;;9.20;61.10;;;;;;10219202;27;20378;-51
2021/04/30 07:41:24;;;;;;;8.70;4.43;;;9.10;61.90;;;;;;10213630;27;20275;-55
2021/04/30 07:46:16;;;;;;;8.45;4.85;;;9.00;62.70;;;;;;10216381;27;20291;-54
2021/04/30 07:51:07;;;;;;;7.45;4.85;;;9.10;62.70;;;;;;10221896;27;20027;-55
2021/04/30 07:55:58;;;;;;;8.20;4.70;;;9.00;64.50;;;;;;10222349;27;20075;-55
2021/04/30 08:00:49;;;;;;;8.98;5.53;;;9.10;64.20;;;;;;10207554;27;20087;-54
2021/04/30 08:05:40;;;;;;;10.15;4.93;;;9.20;64.10;;;;;;10229098;27;20139;-53
2021/04/30 08:10:31;;;;;;;10.23;5.63;;;9.00;64.80;;;;;;10223707;27;20061;-51
2021/04/30 08:15:23;;;;;;;8.93;5.80;;;8.90;65.60;;;;;;10227235;27;20528;-54
2021/04/30 08:20:14;;;;;;;10.57;6.05;;;8.90;67.10;;;;;;10217267;27;20034;-53
2021/04/30 08:25:07;;;;;;;10.57;6.10;;;8.90;66.90;;;;;;10230193;27;20021;-54
2021/04/30 08:29:57;;;;;;;8.07;5.40;;;9.00;67.60;;;;;;10219016;27;20043;-57
2021/04/30 08:34:48;;;;;;;7.05;5.20;;;8.90;68.50;;;;;;10211658;27;20550;-56
2021/04/30 08:39:40;;;;;;;11.65;6.70;;;8.70;69.40;;;;;;10216908;27;20035;-52
2021/04/30 08:44:36;;;;;;;10.70;7.15;;;8.60;70.50;;;;;;10197998;27;20118;-55
2021/04/30 08:49:26;;;;;;;15.10;8.73;;;8.60;69.60;;;;;;10225079;27;20481;-53
2021/04/30 08:54:17;;;;;;;14.02;8.27;;;8.60;69.20;;;;;;10221324;28;20208;-55
2021/04/30 08:59:08;;;;;;;10.35;7.07;;;8.80;70.20;;;;;;10207518;27;20335;-52
2021/04/30 09:03:59;;;;;;;12.98;6.55;;;8.80;69.60;;;;;;10215187;28;20110;-57
2021/04/30 09:08:50;;;;;;;9.57;6.28;;;8.80;70.30;;;;;;10224004;28;20446;-52
2021/04/30 09:13:41;;;;;;;14.55;7.78;;;8.90;69.50;;;;;;10237196;28;20048;-56
2021/04/30 09:18:33;;;;;;;11.45;5.97;;;8.90;69.30;;;;;;10219142;27;20152;-58
2021/04/30 09:23:44;;;;;;;7.47;5.47;;;8.80;70.80;;;;;;10216102;28;20198;-57
2021/04/30 09:28:35;;;;;;;10.15;6.07;;;8.90;71.90;;;;;;10225250;27;20118;-60
2021/04/30 09:33:25;;;;;;;10.60;6.53;;;9.00;70.60;;;;;;10226659;28;20156;-54
2021/04/30 09:38:30;;;;;;;12.45;6.68;;;8.90;71.80;;;;;;10228809;28;20371;-52
2021/04/30 09:43:20;;;;;;;10.07;7.20;;;8.90;73.70;;;;;;10221255;27;20032;-55
2021/04/30 09:48:13;;;;;;;11.43;6.22;;;8.90;72.70;;;;;;10180117;28;20055;-53
2021/04/30 09:53:08;;;;;;;12.43;6.88;;;8.90;73.60;;;;;;10188032;27;20034;-56
2021/04/30 09:58:19;;;;;;;9.23;5.45;;;9.00;73.10;;;;;;10185706;28;20277;-55
2021/04/30 10:03:16;;;;;;;12.35;7.03;;;8.90;73.10;;;;;;10165029;28;20458;-56
2021/04/30 10:08:14;;;;;;;11.70;6.80;;;9.20;72.50;;;;;;10174809;28;20154;-55
2021/04/30 10:13:05;;;;;;;10.52;6.55;;;9.30;72.80;;;;;;10193940;28;20461;-55
2021/04/30 10:17:57;;;;;;;14.25;7.45;;;9.10;73.20;;;;;;10184730;28;20358;-54
2021/04/30 10:22:51;;;;;;;15.88;7.97;;;9.20;72.90;;;;;;10187588;28;20035;-55
2021/04/30 10:27:45;;;;;;;13.15;6.90;;;9.30;73.20;;;;;;10192203;28;20130;-55
2021/04/30 10:32:41;;;;;;;12.43;7.05;;;9.50;72.30;;;;;;10184725;28;20165;-55
2021/04/30 10:37:33;;;;;;;11.65;7.47;;;9.60;72.30;;;;;;10189246;28;20453;-57
2021/04/30 10:42:29;;;;;;;11.25;7.03;;;9.90;71.70;;;;;;10180715;28;20043;-56
2021/04/30 10:47:19;;;;;;;13.40;6.55;;;10.00;72.10;;;;;;10182605;28;20181;-57
2021/04/30 10:52:16;;;;;;;11.45;7.13;;;9.90;71.80;;;;;;10173873;28;20090;-63
2021/04/30 10:57:10;;;;;;;11.52;6.72;;;9.80;72.30;;;;;;10183641;28;20032;-61
2021/04/30 11:02:21;;;;;;;9.30;5.30;;;9.70;72.50;;;;;;10176033;28;20614;-59
2021/04/30 11:07:15;;;;;;;10.75;6.78;;;9.60;72.60;;;;;;10158657;28;20123;-58
2021/04/30 11:12:18;;;;;;;9.60;5.93;;;9.40;72.90;;;;;;10156300;28;20677;-59
2021/04/30 11:17:09;;;;;;;9.60;5.50;;;9.60;73.20;;;;;;10170174;28;20082;-60
2021/04/30 11:22:13;;;;;;;7.90;4.80;;;9.50;72.90;;;;;;10174459;28;20512;-57
2021/04/30 11:27:22;;;;;;;10.25;5.70;;;9.50;72.50;;;;;;10177089;28;20394;-57
2021/04/30 11:32:27;;;;;;;8.00;5.55;;;9.50;72.00;;;;;;10166118;28;20033;-53
2021/04/30 11:37:21;;;;;;;7.72;4.38;;;9.70;71.90;;;;;;10168891;28;20048;-57
2021/04/30 11:42:13;;;;;;;8.75;5.80;;;9.60;71.30;;;;;;10168820;28;20032;-54
2021/04/30 11:47:07;;;;;;;7.53;5.10;;;10.00;70.90;;;;;;10213739;27;20071;-60
2021/04/30 11:51:58;;;;;;;8.77;4.70;;;10.50;69.70;;;;;;10216501;27;20023;-58
2021/04/30 11:57:02;;;;;;;7.65;5.72;;;10.50;69.90;;;;;;10222246;27;20147;-59
2021/04/30 12:02:12;;;;;;;10.27;6.05;;;10.00;70.50;;;;;;10187177;27;20027;-56
2021/04/30 12:07:03;;;;;;;8.80;4.97;;;9.90;70.60;;;;;;10209536;27;20027;-56
2021/04/30 12:11:53;;;;;;;7.45;4.85;;;9.70;70.50;;;;;;10198827;27;20024;-59
2021/04/30 12:16:57;;;;;;;9.18;4.15;;;9.60;70.50;;;;;;10209815;27;20035;-61
2021/04/30 12:21:48;;;;;;;6.18;4.28;;;9.70;70.40;;;;;;10224443;27;20034;-56
2021/04/30 12:26:39;;;;;;;8.73;4.88;;;9.60;70.20;;;;;;10220477;27;20038;-53
2021/04/30 12:31:29;;;;;;;8.45;4.97;;;9.60;69.70;;;;;;10209482;27;20117;-54
2021/04/30 12:36:30;;;;;;;8.15;5.63;;;9.70;69.30;;;;;;10214573;27;20127;-57
2021/04/30 12:41:25;;;;;;;11.27;5.55;;;9.90;69.30;;;;;;10213776;27;20028;-53
2021/04/30 12:46:22;;;;;;;8.48;4.93;;;10.30;68.50;;;;;;10197106;27;20047;-56
2021/04/30 12:51:15;;;;;;;8.93;4.68;;;10.40;67.80;;;;;;10170120;28;20091;-56
2021/04/30 12:56:07;;;;;;;8.75;5.70;;;10.30;68.30;;;;;;10094228;28;21198;-53
2021/04/30 13:01:01;;;;;;;7.88;5.28;;;10.10;68.60;;;;;;10097616;28;20032;-53
2021/04/30 13:05:53;;;;;;;7.57;4.85;;;10.20;68.50;;;;;;10116459;28;20556;-53
2021/04/30 13:11:23;;;;;;;9.02;5.10;;;10.50;68.00;;;;;;10114104;28;20039;-53
2021/04/30 13:16:13;;;;;;;6.53;4.38;;;10.60;67.90;;;;;;10109887;28;20048;-52
2021/04/30 13:21:05;;;;;;;7.93;4.70;;;10.50;67.90;;;;;;10128127;28;20032;-54
2021/04/30 13:25:58;;;;;;;6.13;5.10;;;10.70;67.50;;;;;;10131911;28;20040;-57
2021/04/30 13:30:52;;;;;;;8.18;5.20;;;10.70;67.50;;;;;;10103482;28;20657;-52
2021/04/30 13:35:45;;;;;;;10.55;5.22;;;10.50;67.50;;;;;;10129389;28;20502;-53
2021/04/30 13:40:36;;;;;;;5.50;4.22;;;10.30;67.00;;;;;;10127734;28;20036;-52
2021/04/30 13:45:26;;;;;;;7.75;4.63;;;10.30;66.80;;;;;;10131708;27;20052;-55
2021/04/30 13:50:31;;;;;;;7.68;4.68;;;10.10;67.40;;;;;;10180821;27;20032;-51
2021/04/30 13:55:22;;;;;;;7.22;4.65;;;10.40;66.50;;;;;;10189001;27;20107;-51
2021/04/30 14:00:15;;;;;;;9.93;5.03;;;11.00;65.80;;;;;;10157422;27;20037;-52
2021/04/30 14:05:08;;;;;;;8.05;5.18;;;11.20;65.10;;;;;;10173058;27;20042;-53
2021/04/30 14:09:59;;;;;;;7.38;5.22;;;11.10;65.60;;;;;;10151834;27;20055;-49
2021/04/30 14:14:49;;;;;;;8.65;5.47;;;11.20;65.60;;;;;;10166722;27;20102;-51
2021/04/30 14:19:40;;;;;;;9.02;5.70;;;11.40;65.30;;;;;;10167907;27;20167;-52
2021/04/30 14:24:33;;;;;;;6.65;5.05;;;11.20;65.20;;;;;;10160847;27;20424;-54
2021/04/30 14:29:24;;;;;;;7.80;5.43;;;11.10;65.90;;;;;;10172749;27;20058;-55
2021/04/30 14:34:15;;;;;;;6.68;4.90;;;10.80;65.70;;;;;;10170669;27;20035;-54
2021/04/30 14:39:06;;;;;;;8.00;4.90;;;10.70;65.90;;;;;;10167042;27;20039;-53
2021/04/30 14:43:57;;;;;;;6.95;5.10;;;10.60;66.00;;;;;;10149435;27;20043;-55
2021/04/30 14:48:48;;;;;;;9.63;5.78;;;10.50;65.20;;;;;;10162542;27;20692;-52
2021/04/30 14:53:39;;;;;;;10.63;6.05;;;10.30;65.60;;;;;;10159350;27;20121;-52
2021/04/30 14:58:30;;;;;;;11.60;5.95;;;10.30;65.40;;;;;;10156459;27;20046;-53
2021/04/30 15:03:20;;;;;;;7.72;4.07;;;10.20;65.20;;;;;;10165659;27;20027;-56
2021/04/30 15:08:12;;;;;;;9.32;5.65;;;10.10;65.30;;;;;;10163983;27;20036;-54
2021/04/30 15:13:03;;;;;;;8.65;5.90;;;10.20;65.20;;;;;;10159587;27;20049;-56
2021/04/30 15:18:00;;;;;;;8.45;5.55;;;10.40;65.20;;;;;;10155171;27;20066;-52
2021/04/30 15:22:51;;;;;;;9.35;5.80;;;10.50;65.00;;;;;;10170011;27;20035;-52
2021/04/30 15:27:41;;;;;;;9.27;6.07;;;10.70;65.00;;;;;;10163057;27;20023;-52
2021/04/30 15:32:32;;;;;;;9.35;6.63;;;10.80;64.30;;;;;;10166129;27;20226;-59
2021/04/30 15:37:23;;;;;;;9.10;6.50;;;10.80;64.20;;;;;;10174804;27;20300;-59
2021/04/30 15:42:13;;;;;;;7.53;5.53;;;10.70;64.50;;;;;;10178073;27;20494;-58
2021/04/30 15:47:04;;;;;;;8.40;5.75;;;10.90;64.10;;;;;;10169985;27;20069;-55
2021/04/30 15:51:55;;;;;;;9.63;6.45;;;11.20;63.50;;;;;;10178091;27;20296;-51
2021/04/30 15:56:46;;;;;;;9.80;5.70;;;11.30;63.60;;;;;;10165684;27;20613;-54
2021/04/30 16:01:37;;;;;;;12.30;6.03;;;11.40;63.20;;;;;;10158835;27;20030;-54
2021/04/30 16:06:34;;;;;;;8.13;5.47;;;11.10;63.90;;;;;;10184159;27;20034;-57
2021/04/30 16:11:29;;;;;;;12.35;6.95;;;11.00;63.80;;;;;;10184044;27;20038;-59
2021/04/30 16:16:19;;;;;;;11.73;6.63;;;11.00;63.50;;;;;;10174139;27;20039;-58
2021/04/30 16:21:11;;;;;;;8.98;6.32;;;11.10;63.40;;;;;;10177034;27;20035;-54
2021/04/30 16:26:03;;;;;;;10.18;6.70;;;11.40;63.70;;;;;;10161931;27;20023;-55
2021/04/30 16:30:54;;;;;;;9.45;5.60;;;11.20;63.20;;;;;;10182844;27;20118;-57
2021/04/30 16:35:44;;;;;;;9.70;6.65;;;11.00;63.30;;;;;;10181473;27;20042;-52
2021/04/30 16:40:36;;;;;;;9.07;5.88;;;10.90;63.40;;;;;;10173403;27;20031;-54
2021/04/30 16:45:27;;;;;;;9.95;5.80;;;10.90;63.20;;;;;;10178595;27;20052;-55
2021/04/30 16:50:18;;;;;;;11.73;6.13;;;10.90;63.10;;;;;;10184143;27;20438;-53
2021/04/30 16:55:10;;;;;;;10.45;5.68;;;10.80;63.00;;;;;;10173919;27;20309;-53
2021/04/30 17:00:01;;;;;;;8.50;6.60;;;10.60;63.40;;;;;;10192018;27;20500;-54
2021/04/30 17:04:51;;;;;;;11.35;5.75;;;10.60;63.50;;;;;;10189200;27;20459;-58
2021/04/30 17:09:42;;;;;;;10.02;6.30;;;10.60;63.70;;;;;;10194965;28;20035;-56
2021/04/30 17:14:33;;;;;;;11.30;7.18;;;10.50;63.60;;;;;;10190846;28;20019;-59
2021/04/30 17:19:24;;;;;;;9.55;5.82;;;10.60;63.20;;;;;;10178915;28;20596;-57
2021/04/30 17:24:15;;;;;;;11.68;6.32;;;10.60;63.60;;;;;;10189364;28;21477;-57
2021/04/30 17:29:07;;;;;;;10.13;6.28;;;10.50;63.80;;;;;;10188526;28;20027;-62
2021/04/30 17:33:57;;;;;;;8.82;6.65;;;10.40;63.80;;;;;;10174919;28;20122;-64
2021/04/30 17:38:48;;;;;;;11.00;6.03;;;10.50;63.60;;;;;;10167896;28;20474;-62
2021/04/30 17:43:40;;;;;;;10.55;6.95;;;10.50;63.40;;;;;;10174824;28;20607;-63
2021/04/30 17:48:31;;;;;;;10.02;6.57;;;10.50;63.30;;;;;;10186996;28;20039;-64
2021/04/30 17:53:22;;;;;;;10.52;6.07;;;10.60;63.20;;;;;;10179401;28;20035;-60
2021/04/30 17:58:13;;;;;;;10.43;7.45;;;10.60;63.30;;;;;;10178002;28;20039;-62
2021/04/30 18:03:04;;;;;;;11.05;6.47;;;10.60;63.40;;;;;;10186202;27;20023;-61
2021/04/30 18:07:55;;;;;;;11.80;6.25;;;10.50;63.30;;;;;;10188268;27;20055;-63
2021/04/30 18:12:46;;;;;;;12.85;6.45;;;10.60;63.50;;;;;;10187641;27;20496;-64
2021/04/30 18:17:38;;;;;;;12.40;7.38;;;10.40;63.60;;;;;;10183979;27;20051;-63
2021/04/30 18:22:29;;;;;;;11.15;6.65;;;10.40;63.90;;;;;;10182684;27;21066;-63
2021/04/30 18:27:20;;;;;;;11.48;6.45;;;10.50;63.70;;;;;;10184692;27;20023;-65
2021/04/30 18:32:11;;;;;;;11.85;7.28;;;10.60;63.60;;;;;;10178854;27;20044;-64
2021/04/30 18:37:02;;;;;;;19.10;10.38;;;10.40;63.90;;;;;;10182016;27;20043;-63
2021/04/30 18:41:53;;;;;;;13.70;8.15;;;10.20;64.70;;;;;;10150268;27;20046;-64
2021/04/30 18:46:47;;;;;;;12.02;6.68;;;10.20;64.30;;;;;;10174385;27;20185;-64
2021/04/30 18:51:38;;;;;;;11.50;6.65;;;10.20;64.20;;;;;;10178661;27;20035;-67
2021/04/30 18:56:29;;;;;;;10.20;7.03;;;10.30;64.00;;;;;;10158219;27;20310;-65
2021/04/30 19:01:20;;;;;;;9.10;6.68;;;10.30;64.00;;;;;;10181188;27;20027;-65
2021/04/30 19:06:11;;;;;;;14.07;6.68;;;10.40;63.90;;;;;;10171050;27;20031;-64
2021/04/30 19:11:02;;;;;;;12.18;7.95;;;10.30;63.90;;;;;;10161114;27;20154;-64
2021/04/30 19:15:53;;;;;;;13.38;7.82;;;10.30;64.10;;;;;;10160897;27;20135;-63
2021/04/30 19:20:45;;;;;;;12.50;8.13;;;10.30;64.30;;;;;;10154854;27;20031;-65
2021/04/30 19:25:37;;;;;;;10.82;7.90;;;10.20;64.50;;;;;;10177890;27;20217;-64
2021/04/30 19:30:28;;;;;;;11.82;7.55;;;10.20;64.70;;;;;;10175161;27;20515;-64
2021/04/30 19:35:20;;;;;;;11.57;7.32;;;10.20;64.70;;;;;;10180210;27;20365;-66
2021/04/30 19:40:12;;;;;;;15.32;8.13;;;10.10;64.80;;;;;;10175660;27;20158;-65
2021/04/30 19:45:04;;;;;;;13.85;7.63;;;10.00;65.00;;;;;;10181117;27;20105;-66
2021/04/30 19:49:55;;;;;;;16.80;7.38;;;10.00;65.80;;;;;;10151958;27;20069;-65
2021/04/30 19:54:46;;;;;;;15.73;8.60;;;9.90;65.20;;;;;;10174749;27;20146;-65
2021/04/30 19:59:37;;;;;;;14.65;8.52;;;9.90;65.30;;;;;;10173913;27;20147;-62
2021/04/30 20:04:28;;;;;;;13.95;8.45;;;9.90;65.60;;;;;;10176437;27;20064;-65
2021/04/30 20:09:19;;;;;;;16.27;9.25;;;9.90;65.70;;;;;;10182423;27;20016;-65
2021/04/30 20:14:10;;;;;;;14.38;8.45;;;9.90;65.60;;;;;;10177017;27;20679;-67
2021/04/30 20:19:01;;;;;;;12.80;8.25;;;9.90;65.80;;;;;;10157562;27;20051;-67
2021/04/30 20:23:52;;;;;;;13.25;8.90;;;10.00;65.80;;;;;;10177818;27;20036;-66
2021/04/30 20:28:43;;;;;;;13.98;7.53;;;9.90;65.90;;;;;;10177493;27;20034;-65
2021/04/30 20:33:34;;;;;;;16.25;8.73;;;9.80;66.30;;;;;;10183377;27;20041;-64
2021/04/30 20:38:26;;;;;;;19.13;9.60;;;9.80;66.40;;;;;;10177801;27;20040;-66
2021/04/30 20:43:17;;;;;;;15.63;9.23;;;9.90;66.40;;;;;;10172628;27;20920;-64
2021/04/30 20:48:08;;;;;;;21.25;9.73;;;9.80;66.50;;;;;;10168292;27;20799;-64
2021/04/30 20:53:01;;;;;;;16.45;10.38;;;9.70;66.90;;;;;;10158684;27;20044;-64
2021/04/30 20:57:52;;;;;;;17.40;10.57;;;9.70;66.80;;;;;;10157793;28;20201;-64
2021/04/30 21:02:43;;;;;;;19.38;9.85;;;9.60;66.90;;;;;;10163855;28;20517;-66
2021/04/30 21:07:34;;;;;;;14.70;9.82;;;9.50;67.20;;;;;;10149572;28;20028;-66
2021/04/30 21:17:39;;;;;;;18.33;11.55;;;9.50;67.40;;;;;;10133318;28;20059;-66
2021/04/30 21:22:30;;;;;;;17.73;10.45;;;9.50;67.30;;;;;;10159672;28;20055;-64
2021/04/30 21:27:21;;;;;;;16.60;9.38;;;9.50;67.30;;;;;;10154658;28;20043;-63
2021/04/30 21:32:13;;;;;;;20.30;11.23;;;9.40;67.90;;;;;;10151484;28;20122;-66
2021/04/30 21:37:05;;;;;;;19.08;10.63;;;9.40;67.80;;;;;;10172517;28;20032;-65
2021/04/30 21:41:55;;;;;;;14.63;9.82;;;9.30;67.80;;;;;;10166790;28;20055;-64
2021/04/30 21:46:46;;;;;;;17.65;10.07;;;9.40;68.00;;;;;;10169161;27;20163;-68
2021/04/30 21:51:39;;;;;;;21.92;12.52;;;9.30;68.30;;;;;;10159189;27;20035;-65
2021/04/30 21:56:29;;;;;;;18.98;10.02;;;9.30;68.30;;;;;;10168978;27;20050;-64
2021/04/30 22:01:34;;;;;;;15.98;10.23;;;9.30;68.70;;;;;;10151650;28;20544;-64
2021/04/30 22:06:25;;;;;;;17.45;10.65;;;9.30;69.00;;;;;;10163769;28;20035;-65
2021/04/30 22:11:16;;;;;;;17.08;10.55;;;9.20;68.90;;;;;;10164803;28;20070;-68
2021/04/30 22:16:07;;;;;;;21.45;10.60;;;9.30;69.00;;;;;;10165222;28;20056;-66
2021/04/30 22:20:58;;;;;;;20.35;10.45;;;9.30;69.10;;;;;;10162768;27;20040;-65
2021/04/30 22:25:49;;;;;;;21.02;11.13;;;9.30;69.10;;;;;;10155452;27;21237;-66
2021/04/30 22:30:40;;;;;;;17.73;10.77;;;9.40;69.10;;;;;;10160191;27;20032;-67
2021/04/30 22:35:30;;;;;;;24.20;11.48;;;9.30;69.30;;;;;;10175985;27;20096;-67
2021/04/30 22:40:26;;;;;;;20.35;12.20;;;9.30;69.60;;;;;;10173528;27;20618;-63
2021/04/30 22:45:17;;;;;;;19.53;11.13;;;9.30;69.90;;;;;;10165412;27;20633;-66
2021/04/30 22:50:08;;;;;;;19.67;11.15;;;9.30;69.80;;;;;;10171984;27;20100;-65
2021/04/30 22:55:00;;;;;;;20.15;11.63;;;9.30;70.20;;;;;;10178380;27;20043;-65
2021/04/30 22:59:51;;;;;;;22.55;12.70;;;9.30;70.10;;;;;;10175159;27;20062;-66
2021/04/30 23:04:42;;;;;;;24.75;13.05;;;9.30;70.40;;;;;;10184264;27;20382;-63
2021/04/30 23:09:36;;;;;;;24.75;13.02;;;9.20;70.60;;;;;;10179139;27;20040;-63
2021/04/30 23:14:27;;;;;;;23.58;12.90;;;9.10;70.90;;;;;;10174880;27;20036;-65
2021/04/30 23:19:18;;;;;;;20.48;12.27;;;9.20;70.90;;;;;;10164439;28;20120;-67
2021/04/30 23:24:08;;;;;;;19.02;11.60;;;9.10;71.00;;;;;;10175510;27;20031;-63
2021/04/30 23:28:59;;;;;;;18.63;10.57;;;9.20;71.00;;;;;;10150846;27;20039;-64
2021/04/30 23:33:50;;;;;;;21.52;13.00;;;9.20;71.20;;;;;;10164459;27;20040;-63
2021/04/30 23:38:41;;;;;;;18.10;11.90;;;9.10;71.40;;;;;;10170718;27;20047;-65
2021/04/30 23:43:33;;;;;;;18.67;9.65;;;9.00;71.80;;;;;;10178374;27;20047;-64
2021/04/30 23:48:24;;;;;;;19.92;11.75;;;9.00;72.40;;;;;;10172931;27;20148;-63
2021/04/30 23:53:14;;;;;;;20.50;10.98;;;9.00;71.90;;;;;;10156275;28;20091;-63
2021/04/30 23:58:05;;;;;;;20.27;12.32;;;8.90;72.50;;;;;;10165305;27;20039;-63
